Time;durP1;ratioP1;P1;durP2;ratioP2;P2;SDS_P1;SDS_P2;PMS_P1;PMS_P2;Temp;Humidity;BMP_temperature;BMP_pressure;BME280_temperature;BME280_humidity;BME280_pressure;Samples;Min_cycle;Max_cycle;Signal;HPM_P1;HPM_P2
2022/05/17 00:00:08;;;;;;;13.90;3.40;;;12.30;85.90;;;;;;4858158;29;20045;-73
2022/05/17 00:02:39;;;;;;;24.55;4.10;;;12.20;86.00;;;;;;4858186;29;20049;-73
2022/05/17 00:05:08;;;;;;;13.43;3.90;;;12.20;86.10;;;;;;4858716;29;20052;-73
2022/05/17 00:07:37;;;;;;;13.05;3.33;;;12.10;86.20;;;;;;4859578;29;20330;-73
2022/05/17 00:10:06;;;;;;;17.52;3.55;;;12.00;86.20;;;;;;4857778;29;20053;-74
2022/05/17 00:12:35;;;;;;;19.02;4.18;;;12.00;86.40;;;;;;4858060;29;20053;-74
2022/05/17 00:15:05;;;;;;;19.63;3.95;;;11.90;86.50;;;;;;4858622;29;20064;-74
2022/05/17 00:17:33;;;;;;;21.45;3.58;;;11.90;86.70;;;;;;4854931;29;20523;-75
2022/05/17 00:20:00;;;;;;;15.77;3.90;;;11.80;86.80;;;;;;4856307;29;20054;-74
2022/05/17 00:22:28;;;;;;;13.57;3.42;;;11.80;86.90;;;;;;4858926;29;20049;-74
2022/05/17 00:24:55;;;;;;;22.08;4.10;;;11.80;87.00;;;;;;4864131;29;20056;-74
2022/05/17 00:27:23;;;;;;;12.35;3.63;;;11.60;87.10;;;;;;4858765;29;20056;-74
2022/05/17 00:29:51;;;;;;;15.63;4.18;;;11.60;87.20;;;;;;4857657;29;20053;-74
2022/05/17 00:32:18;;;;;;;14.57;3.63;;;11.50;87.30;;;;;;4858898;29;20068;-74
2022/05/17 00:34:46;;;;;;;23.42;4.95;;;11.40;87.30;;;;;;4857665;29;20053;-74
2022/05/17 00:37:14;;;;;;;14.65;4.03;;;11.30;87.50;;;;;;4858782;29;20068;-74
2022/05/17 00:39:42;;;;;;;14.82;4.30;;;11.30;87.60;;;;;;4860309;29;20479;-74
2022/05/17 00:42:10;;;;;;;16.63;3.45;;;11.30;87.60;;;;;;4856790;29;20068;-74
2022/05/17 00:44:43;;;;;;;18.42;4.82;;;11.20;87.70;;;;;;4846002;29;20050;-74
2022/05/17 00:47:18;;;;;;;;;;;11.10;87.80;;;;;;4858395;29;20393;-74
2022/05/17 00:49:56;;;;;;;17.83;4.40;;;11.00;87.90;;;;;;4858900;29;19928;-74
2022/05/17 00:52:28;;;;;;;19.20;4.97;;;11.00;87.90;;;;;;4856987;29;20049;-74
2022/05/17 00:55:09;;;;;;;15.50;4.63;;;10.80;88.00;;;;;;4856725;29;20057;-74
2022/05/17 00:57:46;;;;;;;20.75;5.15;;;10.80;88.00;;;;;;4857931;29;20058;-74
2022/05/17 01:00:16;;;;;;;12.95;4.13;;;10.80;88.10;;;;;;4858100;29;20046;-74
2022/05/17 01:02:48;;;;;;;14.88;4.57;;;10.70;88.20;;;;;;4858402;29;20049;-74
2022/05/17 01:05:17;;;;;;;16.40;4.70;;;10.70;88.30;;;;;;4856498;29;20068;-74
2022/05/17 01:07:51;;;;;;;19.25;4.82;;;10.70;88.30;;;;;;4861383;29;20514;-74
2022/05/17 01:10:19;;;;;;;;;;;10.60;88.40;;;;;;4859151;29;20507;-74
2022/05/17 01:14:57;;;;;;;18.58;4.65;;;10.50;88.50;;;;;;4859715;29;19931;-74
2022/05/17 01:15:35;;;;;;;26.25;4.82;;;10.50;88.50;;;;;;4854699;29;20044;-74
2022/05/17 01:18:05;;;;;;;20.95;4.60;;;10.50;88.50;;;;;;4860538;29;20400;-74
2022/05/17 01:20:32;;;;;;;14.48;3.97;;;10.40;88.60;;;;;;4861477;29;20488;-74
2022/05/17 01:23:00;;;;;;;13.40;4.25;;;10.40;88.70;;;;;;4859432;29;20084;-74
2022/05/17 01:25:28;;;;;;;20.58;4.57;;;10.30;88.70;;;;;;4862721;29;20514;-74
2022/05/17 01:28:36;;;;;;;17.33;4.35;;;10.30;88.90;;;;;;4859970;29;20060;-74
2022/05/17 01:31:04;;;;;;;22.48;5.15;;;10.30;88.90;;;;;;4863518;29;20065;-74
2022/05/17 01:33:34;;;;;;;18.60;5.60;;;10.30;89.00;;;;;;4874903;29;20495;-74
2022/05/17 01:36:04;;;;;;;19.02;5.10;;;10.30;89.00;;;;;;4861794;29;20504;-74
2022/05/17 01:38:32;;;;;;;20.20;5.88;;;10.20;89.00;;;;;;4861752;29;20050;-74
2022/05/17 01:40:59;;;;;;;19.00;5.15;;;10.20;89.00;;;;;;4874399;29;20041;-73
2022/05/17 01:43:27;;;;;;;19.17;4.70;;;10.10;89.10;;;;;;4860018;29;20054;-74
2022/05/17 01:45:55;;;;;;;25.60;5.97;;;10.10;89.20;;;;;;4859628;29;20053;-73
2022/05/17 01:48:23;;;;;;;21.10;6.10;;;10.10;89.40;;;;;;4861232;29;20049;-73
2022/05/17 01:50:50;;;;;;;24.05;6.72;;;10.10;89.50;;;;;;4860351;29;20042;-74
2022/05/17 01:53:18;;;;;;;28.50;7.10;;;10.20;89.40;;;;;;4860529;29;20041;-74
2022/05/17 01:55:45;;;;;;;35.17;7.68;;;10.30;89.40;;;;;;4862502;29;20053;-73
2022/05/17 01:58:13;;;;;;;26.23;7.60;;;10.30;89.40;;;;;;4861010;29;20069;-73
2022/05/17 02:00:41;;;;;;;29.60;7.22;;;10.30;89.40;;;;;;4861216;29;20042;-73
2022/05/17 02:03:10;;;;;;;25.55;6.57;;;10.40;89.40;;;;;;4861372;29;20061;-74
2022/05/17 02:05:37;;;;;;;33.88;8.07;;;10.40;89.50;;;;;;4860874;29;20404;-74
2022/05/17 02:08:05;;;;;;;26.05;7.03;;;10.40;89.40;;;;;;4861184;29;20042;-73
2022/05/17 02:10:33;;;;;;;29.88;7.55;;;10.50;89.40;;;;;;4861630;29;20061;-73
2022/05/17 02:13:00;;;;;;;27.50;7.65;;;10.50;89.50;;;;;;4860831;29;20049;-73
2022/05/17 02:15:28;;;;;;;26.73;7.65;;;10.50;89.50;;;;;;4860906;29;20412;-73
2022/05/17 02:17:56;;;;;;;31.58;7.63;;;10.50;89.60;;;;;;4868103;29;20523;-73
2022/05/17 02:20:24;;;;;;;29.92;7.10;;;10.50;89.60;;;;;;4853401;29;20069;-73
2022/05/17 02:22:55;;;;;;;30.33;8.00;;;10.60;89.60;;;;;;4860649;29;20061;-73
2022/05/17 02:25:23;;;;;;;27.08;7.25;;;10.70;89.60;;;;;;4870467;29;20069;-73
2022/05/17 02:27:51;;;;;;;22.17;7.20;;;10.70;89.60;;;;;;4852071;29;20058;-74
2022/05/17 02:30:19;;;;;;;23.10;7.32;;;10.60;89.60;;;;;;4861893;29;20054;-73
2022/05/17 02:32:47;;;;;;;25.80;7.00;;;10.70;89.70;;;;;;4860792;29;20049;-73
2022/05/17 02:35:15;;;;;;;26.88;8.55;;;10.60;89.60;;;;;;4859521;29;20046;-73
2022/05/17 02:37:43;;;;;;;40.53;7.43;;;10.70;89.70;;;;;;4874618;29;20061;-73
2022/05/17 02:40:11;;;;;;;37.13;7.78;;;10.70;89.70;;;;;;4858234;29;20058;-73
2022/05/17 02:42:40;;;;;;;38.80;8.18;;;10.70;89.80;;;;;;4874878;29;20526;-73
2022/05/17 02:45:08;;;;;;;35.25;8.00;;;10.70;89.80;;;;;;4861468;29;20050;-74
2022/05/17 02:47:36;;;;;;;35.05;8.27;;;10.70;90.00;;;;;;4860512;29;20052;-73
2022/05/17 02:50:04;;;;;;;35.13;8.57;;;10.80;90.00;;;;;;4858756;29;20053;-74
2022/05/17 02:52:32;;;;;;;38.30;8.05;;;10.90;90.00;;;;;;4860368;29;20045;-73
2022/05/17 02:54:59;;;;;;;35.05;8.27;;;11.00;89.90;;;;;;4859315;29;20083;-73
2022/05/17 02:57:27;;;;;;;43.70;8.27;;;11.00;89.90;;;;;;4860410;29;20058;-73
2022/05/17 02:59:54;;;;;;;32.22;7.88;;;11.00;89.90;;;;;;4858779;29;20045;-72
2022/05/17 03:02:22;;;;;;;28.75;7.57;;;11.00;89.90;;;;;;4859560;29;20053;-73
2022/05/17 03:04:50;;;;;;;45.25;8.18;;;11.00;89.90;;;;;;4857044;29;20530;-73
2022/05/17 03:07:18;;;;;;;35.80;7.75;;;11.00;89.80;;;;;;4860106;29;20423;-73
2022/05/17 03:09:45;;;;;;;24.95;7.75;;;11.00;89.90;;;;;;4860142;29;20045;-73
2022/05/17 03:12:13;;;;;;;35.72;8.07;;;10.90;89.90;;;;;;4860455;29;20400;-73
2022/05/17 03:14:40;;;;;;;34.38;7.90;;;10.90;90.10;;;;;;4858378;29;20527;-73
2022/05/17 03:17:11;;;;;;;38.95;7.93;;;10.90;90.20;;;;;;4858994;29;20045;-73
2022/05/17 03:19:40;;;;;;;36.10;8.25;;;10.90;90.20;;;;;;4860241;29;20045;-73
2022/05/17 03:22:08;;;;;;;35.95;8.18;;;10.90;90.20;;;;;;4859235;29;20110;-73
2022/05/17 03:24:36;;;;;;;43.40;9.05;;;10.90;90.20;;;;;;4860671;29;20045;-73
2022/05/17 03:27:24;;;;;;;38.10;8.25;;;10.90;90.10;;;;;;4854384;29;20038;-73
2022/05/17 03:29:51;;;;;;;39.67;7.82;;;10.80;90.20;;;;;;4858531;29;20057;-73
2022/05/17 03:32:20;;;;;;;35.22;7.70;;;10.80;90.20;;;;;;4858734;29;20056;-72
2022/05/17 03:34:48;;;;;;;37.63;8.60;;;10.70;90.10;;;;;;4859273;29;20046;-73
2022/05/17 03:37:15;;;;;;;32.35;8.07;;;10.70;90.20;;;;;;4856901;29;20052;-72
2022/05/17 03:39:43;;;;;;;58.63;9.85;;;10.60;90.40;;;;;;4858959;29;20046;-73
2022/05/17 03:42:11;;;;;;;49.08;9.75;;;10.60;90.40;;;;;;4859048;29;20065;-72
2022/05/17 03:44:39;;;;;;;31.70;8.50;;;10.50;90.50;;;;;;4859968;29;20057;-73
2022/05/17 03:47:08;;;;;;;41.35;8.88;;;10.50;90.50;;;;;;4857847;29;20049;-73
2022/05/17 03:49:38;;;;;;;46.65;9.00;;;10.50;90.60;;;;;;4853136;29;20559;-73
2022/05/17 03:52:08;;;;;;;44.05;9.52;;;10.40;90.50;;;;;;4870662;29;20061;-73
2022/05/17 03:54:37;;;;;;;44.30;9.38;;;10.30;90.60;;;;;;4855554;29;20057;-73
2022/05/17 03:57:05;;;;;;;39.72;9.15;;;10.30;90.80;;;;;;4864288;29;20424;-72
2022/05/17 03:59:34;;;;;;;35.00;8.98;;;10.40;91.10;;;;;;4847464;29;20491;-74
2022/05/17 04:02:03;;;;;;;44.35;8.90;;;10.60;91.40;;;;;;4860041;29;20049;-72
2022/05/17 04:04:33;;;;;;;53.53;8.75;;;10.70;91.40;;;;;;4858259;29;20060;-73
2022/05/17 04:07:01;;;;;;;50.17;8.48;;;10.80;91.20;;;;;;4857875;29;20053;-73
2022/05/17 04:09:30;;;;;;;29.90;7.35;;;10.90;91.10;;;;;;4859262;29;20064;-73
2022/05/17 04:11:59;;;;;;;44.88;7.70;;;11.10;91.00;;;;;;4859323;29;20042;-72
2022/05/17 04:14:27;;;;;;;46.92;7.88;;;11.20;90.90;;;;;;4858800;29;20049;-72
2022/05/17 04:16:55;;;;;;;43.17;7.82;;;11.30;90.70;;;;;;4859607;29;20064;-72
2022/05/17 04:19:22;;;;;;;40.45;6.65;;;11.30;90.60;;;;;;4858495;29;20072;-73
2022/05/17 04:21:50;;;;;;;40.83;8.07;;;11.30;90.60;;;;;;4858898;29;20045;-72
2022/05/17 04:24:17;;;;;;;39.20;7.35;;;11.30;90.60;;;;;;4857991;29;20068;-73
2022/05/17 04:26:45;;;;;;;43.33;8.07;;;11.30;90.60;;;;;;4859715;29;20408;-72
2022/05/17 04:29:13;;;;;;;38.55;7.47;;;11.30;90.60;;;;;;4857071;29;20049;-73
2022/05/17 04:31:40;;;;;;;43.60;7.50;;;11.20;90.50;;;;;;4857523;29;20045;-72
2022/05/17 04:34:08;;;;;;;44.53;6.90;;;11.20;90.50;;;;;;4857280;29;20053;-72
2022/05/17 04:36:36;;;;;;;42.55;7.68;;;11.20;90.50;;;;;;4859648;29;20068;-73
2022/05/17 04:39:04;;;;;;;45.85;7.97;;;11.10;90.50;;;;;;4858318;29;20057;-73
2022/05/17 04:41:31;;;;;;;43.33;7.63;;;11.00;90.70;;;;;;4859085;29;20504;-73
2022/05/17 04:43:59;;;;;;;46.28;8.13;;;11.00;90.70;;;;;;4858433;29;20052;-73
2022/05/17 04:46:27;;;;;;;39.00;6.53;;;11.00;90.70;;;;;;4857800;29;20124;-73
2022/05/17 04:48:54;;;;;;;48.95;7.60;;;11.00;90.80;;;;;;4859262;29;20057;-73
2022/05/17 04:51:22;;;;;;;46.45;7.13;;;11.00;90.80;;;;;;4859268;29;20508;-73
2022/05/17 04:53:50;;;;;;;33.40;6.80;;;11.00;90.80;;;;;;4854986;29;20053;-72
2022/05/17 04:56:19;;;;;;;54.75;8.07;;;11.00;90.80;;;;;;4858598;29;20053;-71
2022/05/17 04:58:47;;;;;;;40.30;7.15;;;10.90;90.80;;;;;;4857188;29;20051;-73
2022/05/17 05:01:14;;;;;;;38.60;7.63;;;10.90;90.90;;;;;;4858399;29;20041;-73
2022/05/17 05:03:42;;;;;;;46.80;7.75;;;10.90;90.90;;;;;;4855518;29;20408;-73
2022/05/17 05:06:09;;;;;;;33.15;5.75;;;11.00;90.90;;;;;;4854170;29;20057;-73
2022/05/17 05:08:37;;;;;;;41.58;6.47;;;11.00;90.90;;;;;;4856811;29;20076;-73
2022/05/17 05:11:05;;;;;;;38.47;6.45;;;11.00;90.90;;;;;;4857650;29;20507;-72
2022/05/17 05:13:33;;;;;;;35.22;5.70;;;11.00;90.90;;;;;;4856335;29;20056;-73
2022/05/17 05:16:00;;;;;;;34.10;6.07;;;11.10;90.80;;;;;;4858492;29;20064;-72
2022/05/17 05:18:28;;;;;;;42.40;7.28;;;11.10;90.80;;;;;;4858231;29;20496;-73
2022/05/17 05:21:04;;;;;;;35.30;6.05;;;11.10;90.80;;;;;;4857424;29;20045;-73
2022/05/17 05:23:32;;;;;;;39.80;6.10;;;11.10;90.70;;;;;;4857562;29;20045;-72
2022/05/17 05:26:00;;;;;;;38.92;6.68;;;11.10;90.80;;;;;;4856924;29;20052;-72
2022/05/17 05:28:28;;;;;;;42.47;6.90;;;11.10;90.80;;;;;;4858308;29;20050;-73
2022/05/17 05:30:55;;;;;;;28.20;6.10;;;11.10;90.80;;;;;;4863350;29;20053;-74
2022/05/17 05:33:23;;;;;;;39.40;6.65;;;11.20;90.80;;;;;;4857033;29;20037;-73
2022/05/17 05:35:52;;;;;;;39.08;5.85;;;11.20;90.80;;;;;;4856926;29;20054;-73
2022/05/17 05:38:21;;;;;;;30.65;5.68;;;11.30;90.80;;;;;;4857665;29;20388;-73
2022/05/17 05:40:54;;;;;;;48.00;6.65;;;11.30;90.80;;;;;;4857693;29;20516;-73
2022/05/17 05:43:25;;;;;;;34.20;6.10;;;11.40;90.70;;;;;;4861621;29;20037;-73
2022/05/17 05:45:52;;;;;;;34.40;6.07;;;11.50;90.70;;;;;;4852479;29;20069;-73
2022/05/17 05:48:20;;;;;;;31.67;5.60;;;11.60;90.60;;;;;;4858592;29;20057;-73
2022/05/17 05:50:48;;;;;;;31.35;5.53;;;11.60;90.60;;;;;;4858023;29;20523;-73
2022/05/17 05:53:15;;;;;;;32.40;6.22;;;11.70;90.50;;;;;;4856563;29;20045;-73
2022/05/17 05:55:43;;;;;;;33.58;5.63;;;11.80;90.40;;;;;;4862117;29;20519;-73
2022/05/17 05:58:12;;;;;;;34.17;5.13;;;11.80;90.30;;;;;;4861962;29;20066;-73
2022/05/17 06:00:39;;;;;;;30.90;5.50;;;11.90;90.20;;;;;;4859783;29;20049;-73
2022/05/17 06:03:07;;;;;;;33.25;5.68;;;12.00;90.10;;;;;;4860739;29;20385;-73
2022/05/17 06:05:37;;;;;;;41.00;6.15;;;12.00;90.00;;;;;;4861886;29;20060;-75
2022/05/17 06:08:05;;;;;;;24.73;5.15;;;12.10;89.80;;;;;;4860465;29;20056;-73
2022/05/17 06:10:32;;;;;;;29.77;5.53;;;12.20;89.80;;;;;;4859553;29;20049;-73
2022/05/17 06:13:00;;;;;;;31.50;5.63;;;12.30;89.60;;;;;;4859273;29;20416;-73
2022/05/17 06:15:27;;;;;;;31.15;4.93;;;12.40;89.50;;;;;;4871627;29;20053;-74
2022/05/17 06:18:01;;;;;;;33.78;5.85;;;12.50;89.40;;;;;;4861588;29;20064;-73
2022/05/17 06:20:29;;;;;;;29.35;4.78;;;12.60;89.30;;;;;;4861687;29;20068;-75
2022/05/17 06:22:56;;;;;;;32.40;4.78;;;12.70;89.10;;;;;;4860913;29;20049;-74
2022/05/17 06:25:24;;;;;;;30.98;4.78;;;12.70;88.90;;;;;;4861161;29;20053;-73
2022/05/17 06:27:52;;;;;;;29.20;5.22;;;12.70;88.80;;;;;;4860240;29;20049;-73
2022/05/17 06:30:19;;;;;;;37.45;4.70;;;12.80;88.80;;;;;;4860429;29;20453;-74
2022/05/17 06:32:47;;;;;;;23.38;4.93;;;12.80;88.60;;;;;;4859337;29;20053;-74
2022/05/17 06:35:15;;;;;;;26.65;4.65;;;12.90;88.40;;;;;;4860645;29;20064;-74
2022/05/17 06:37:43;;;;;;;33.00;5.47;;;12.90;88.30;;;;;;4861115;29;20049;-74
2022/05/17 06:40:11;;;;;;;31.55;4.95;;;13.00;88.20;;;;;;4859469;29;20547;-74
2022/05/17 06:42:39;;;;;;;29.73;5.03;;;13.00;88.20;;;;;;4860311;29;20064;-74
2022/05/17 06:45:09;;;;;;;39.42;5.82;;;13.10;88.10;;;;;;4859253;29;20053;-73
2022/05/17 06:47:38;;;;;;;38.22;5.88;;;13.20;88.00;;;;;;4859186;29;20412;-73
2022/05/17 06:50:07;;;;;;;32.47;5.35;;;13.30;87.90;;;;;;4858858;29;20092;-74
2022/05/17 06:52:36;;;;;;;27.58;4.55;;;13.30;87.90;;;;;;4859294;29;20049;-73
2022/05/17 06:55:04;;;;;;;26.98;5.03;;;13.40;87.80;;;;;;4860373;29;20754;-74
2022/05/17 06:57:31;;;;;;;30.25;5.32;;;13.50;87.70;;;;;;4858943;29;20045;-73
2022/05/17 06:59:59;;;;;;;28.88;4.75;;;13.50;87.60;;;;;;4860243;29;20045;-73
2022/05/17 07:02:27;;;;;;;26.80;4.72;;;13.70;87.50;;;;;;4861548;29;20056;-73
2022/05/17 07:04:55;;;;;;;29.65;4.70;;;13.70;87.30;;;;;;4860307;29;20050;-73
2022/05/17 07:07:22;;;;;;;35.70;4.97;;;13.80;87.10;;;;;;4860271;29;20065;-73
2022/05/17 07:15:22;;;;;;;19.52;3.88;;;14.10;86.40;;;;;;4855895;29;20073;-72
2022/05/17 07:17:51;;;;;;;20.60;4.00;;;14.20;85.90;;;;;;4860588;29;20051;-73
2022/05/17 07:20:22;;;;;;;18.77;3.78;;;14.20;85.70;;;;;;4849724;29;20062;-73
2022/05/17 07:22:50;;;;;;;24.38;4.70;;;14.20;85.70;;;;;;4877020;29;20057;-72
2022/05/17 07:25:18;;;;;;;27.02;4.07;;;14.30;85.40;;;;;;4875024;29;20053;-73
2022/05/17 07:27:45;;;;;;;22.63;3.65;;;14.30;85.50;;;;;;4860740;29;20400;-73
2022/05/17 07:30:13;;;;;;;20.77;3.47;;;14.50;85.20;;;;;;4859286;29;20050;-73
2022/05/17 07:32:41;;;;;;;23.23;4.22;;;14.50;85.20;;;;;;4859560;29;20061;-73
2022/05/17 07:35:09;;;;;;;21.70;4.15;;;14.60;84.90;;;;;;4856259;29;20061;-73
2022/05/17 07:37:36;;;;;;;19.88;4.25;;;14.60;84.80;;;;;;4862197;29;20061;-73
2022/05/17 07:40:05;;;;;;;28.95;4.28;;;14.70;84.80;;;;;;4860176;29;20408;-72
2022/05/17 07:42:33;;;;;;;26.23;4.50;;;14.70;84.70;;;;;;4852262;29;20058;-73
2022/05/17 07:45:00;;;;;;;18.70;3.50;;;14.70;84.70;;;;;;4858801;29;20628;-73
2022/05/17 07:47:29;;;;;;;23.77;3.83;;;14.80;84.60;;;;;;4843312;29;20061;-73
2022/05/17 07:49:57;;;;;;;26.13;4.40;;;14.80;84.50;;;;;;4858761;29;20427;-73
2022/05/17 07:52:24;;;;;;;20.77;3.53;;;14.90;84.30;;;;;;4859273;29;20500;-72
2022/05/17 07:54:52;;;;;;;22.60;3.92;;;14.90;84.10;;;;;;4860334;29;20199;-72
2022/05/17 07:57:21;;;;;;;21.90;3.85;;;14.90;83.80;;;;;;4860176;29;20049;-74
2022/05/17 07:59:49;;;;;;;21.05;3.38;;;15.00;83.40;;;;;;4859792;29;20058;-73
2022/05/17 08:02:17;;;;;;;21.30;3.45;;;15.00;83.40;;;;;;4858617;29;20053;-74
2022/05/17 08:04:46;;;;;;;20.67;3.38;;;15.10;83.30;;;;;;4859696;29;20046;-74
2022/05/17 08:07:13;;;;;;;19.05;3.47;;;15.30;83.10;;;;;;4850226;29;20054;-73
2022/05/17 08:09:41;;;;;;;17.80;4.07;;;15.30;82.90;;;;;;4853894;29;20065;-73
2022/05/17 08:12:10;;;;;;;23.33;3.70;;;15.30;82.60;;;;;;4853492;29;20411;-74
2022/05/17 08:14:40;;;;;;;15.20;3.75;;;15.30;82.20;;;;;;4859244;29;20057;-73
2022/05/17 08:17:08;;;;;;;21.13;3.97;;;15.40;82.10;;;;;;4858883;29;20061;-74
2022/05/17 08:19:37;;;;;;;15.32;3.53;;;15.50;81.90;;;;;;4858794;29;20515;-74
2022/05/17 08:22:07;;;;;;;16.42;3.42;;;15.60;81.90;;;;;;4859547;29;20061;-74
2022/05/17 08:27:32;;;;;;;19.85;3.88;;;15.80;81.30;;;;;;4851823;29;20061;-74
2022/05/17 08:30:00;;;;;;;14.60;3.38;;;16.00;80.80;;;;;;4859059;29;20053;-74
2022/05/17 08:35:15;;;;;;;11.73;2.70;;;16.20;79.80;;;;;;4846751;29;20129;-74
2022/05/17 08:37:43;;;;;;;17.95;3.83;;;16.30;79.00;;;;;;4858996;29;20049;-73
2022/05/17 08:40:20;;;;;;;12.13;3.00;;;16.40;78.50;;;;;;4859345;29;20062;-74
2022/05/17 08:42:55;;;;;;;15.57;3.40;;;16.40;78.30;;;;;;4858769;29;20053;-72
2022/05/17 08:45:34;;;;;;;14.48;3.45;;;16.30;78.40;;;;;;4859165;29;20049;-75
2022/05/17 08:48:04;;;;;;;12.18;3.47;;;16.50;78.60;;;;;;4858823;29;20041;-74
2022/05/17 08:50:36;;;;;;;15.52;3.40;;;16.80;77.90;;;;;;4859617;29;20061;-74
2022/05/17 08:53:04;;;;;;;12.77;3.30;;;16.80;77.30;;;;;;4859753;29;20062;-74
2022/05/17 08:55:40;;;;;;;14.57;3.28;;;16.80;77.30;;;;;;4858770;29;20046;-74
2022/05/17 08:58:30;;;;;;;15.10;3.33;;;16.80;77.50;;;;;;4858761;29;20057;-74
2022/05/17 09:01:06;;;;;;;14.52;3.60;;;17.00;76.30;;;;;;4856247;29;20415;-74
2022/05/17 09:03:56;;;;;;;12.15;3.10;;;17.00;76.40;;;;;;4846615;29;20045;-74
2022/05/17 09:06:32;;;;;;;17.17;3.50;;;17.30;75.90;;;;;;4857700;29;20072;-74
2022/05/17 09:09:25;;;;;;;12.40;2.90;;;17.30;75.50;;;;;;4855341;29;20077;-74
2022/05/17 09:12:09;;;;;;;11.63;2.75;;;17.30;75.70;;;;;;4872992;29;20086;-73
2022/05/17 09:14:42;;;;;;;18.55;3.95;;;17.60;75.30;;;;;;4858683;29;20046;-73
2022/05/17 09:17:16;;;;;;;16.75;3.13;;;17.80;74.60;;;;;;4858397;29;20057;-73
2022/05/17 09:19:44;;;;;;;11.63;2.70;;;18.00;73.90;;;;;;4859043;29;20048;-74
2022/05/17 09:22:11;;;;;;;21.70;2.92;;;18.10;72.90;;;;;;4858600;29;20512;-74
2022/05/17 09:24:44;;;;;;;12.65;2.65;;;18.20;72.70;;;;;;4858409;29;20044;-73
2022/05/17 09:27:35;;;;;;;15.88;2.88;;;18.50;72.20;;;;;;4856972;29;20046;-74
2022/05/17 09:30:13;;;;;;;12.73;3.22;;;18.70;71.30;;;;;;4876937;29;20385;-74
2022/05/17 09:32:44;;;;;;;10.57;2.50;;;18.90;70.80;;;;;;4847201;29;20053;-74
2022/05/17 09:35:15;;;;;;;16.50;3.50;;;19.10;70.40;;;;;;4862088;29;20056;-73
2022/05/17 09:37:49;;;;;;;22.15;3.58;;;19.30;69.80;;;;;;4862712;29;20066;-73
2022/05/17 09:40:25;;;;;;;10.35;2.72;;;19.30;68.80;;;;;;4862424;29;20504;-74
2022/05/17 09:43:07;;;;;;;11.60;3.00;;;19.40;69.00;;;;;;4862314;29;20093;-73
2022/05/17 09:45:50;;;;;;;11.52;3.08;;;19.40;68.20;;;;;;4858877;29;20041;-75
2022/05/17 09:52:32;;;;;;;14.77;3.75;;;19.50;67.50;;;;;;4851727;29;20053;-74
2022/05/17 09:55:25;;;;;;;17.15;2.95;;;19.60;68.00;;;;;;4857730;29;20076;-74
2022/05/17 09:58:03;;;;;;;11.18;2.42;;;19.80;66.40;;;;;;4849582;29;20053;-74
2022/05/17 10:00:35;;;;;;;21.52;3.20;;;19.70;66.60;;;;;;4860184;29;20527;-75
2022/05/17 10:03:15;;;;;;;17.73;3.38;;;19.70;67.00;;;;;;4859706;29;20069;-75
2022/05/17 10:05:46;;;;;;;13.63;3.20;;;19.80;66.10;;;;;;4859839;29;20120;-75
2022/05/17 10:08:14;;;;;;;13.02;2.70;;;19.90;65.50;;;;;;4852086;29;20046;-75
2022/05/17 10:11:00;;;;;;;16.70;2.92;;;20.00;65.00;;;;;;4830181;29;20504;-74
2022/05/17 10:13:35;;;;;;;12.95;2.80;;;20.10;63.50;;;;;;4844899;29;20512;-74
2022/05/17 10:16:24;;;;;;;10.95;2.78;;;20.30;63.50;;;;;;4839631;29;20056;-75
2022/05/17 10:19:04;;;;;;;13.13;2.80;;;20.30;62.50;;;;;;4855070;29;20068;-76
2022/05/17 10:21:48;;;;;;;12.73;3.08;;;20.40;62.90;;;;;;4856077;29;20052;-74
2022/05/17 10:24:20;;;;;;;12.93;2.53;;;20.60;63.40;;;;;;4857570;29;20053;-75
2022/05/17 10:26:59;;;;;;;11.13;2.15;;;20.80;62.60;;;;;;4857435;29;20420;-75
2022/05/17 10:29:45;;;;;;;13.88;2.20;;;20.90;60.90;;;;;;4849293;29;20538;-74
2022/05/17 10:32:30;;;;;;;12.27;2.35;;;20.90;61.30;;;;;;4860785;29;20080;-74
2022/05/17 10:35:29;;;;;;;13.27;2.22;;;21.10;61.50;;;;;;4859353;29;20412;-73
2022/05/17 10:38:14;;;;;;;15.00;2.45;;;21.30;60.20;;;;;;4860660;29;20396;-73
2022/05/17 10:40:46;;;;;;;14.18;2.30;;;21.30;59.90;;;;;;4860096;29;20366;-74
2022/05/17 10:43:23;;;;;;;15.50;2.35;;;21.00;59.40;;;;;;4860652;29;20061;-74
2022/05/17 10:46:05;;;;;;;14.98;2.60;;;20.80;60.00;;;;;;4860280;29;20053;-74
2022/05/17 10:49:06;;;;;;;12.65;2.50;;;20.70;60.70;;;;;;4860090;29;20050;-74
2022/05/17 10:51:48;;;;;;;12.95;2.20;;;20.70;60.90;;;;;;4845190;29;20551;-74
2022/05/17 10:54:38;;;;;;;13.57;2.67;;;20.80;60.30;;;;;;4858022;29;20053;-74
2022/05/17 10:57:17;;;;;;;11.05;2.00;;;21.00;60.10;;;;;;4858000;29;21369;-74
2022/05/17 10:59:47;;;;;;;11.75;2.15;;;21.30;59.90;;;;;;4858442;29;20060;-73
2022/05/17 11:02:33;;;;;;;13.13;2.22;;;21.60;57.00;;;;;;4858162;29;20523;-73
2022/05/17 11:05:07;;;;;;;9.73;2.30;;;21.80;56.20;;;;;;4857621;29;20058;-74
2022/05/17 11:07:41;;;;;;;10.73;1.67;;;21.80;56.60;;;;;;4858159;29;20073;-73
2022/05/17 11:10:16;;;;;;;;;;;21.80;56.80;;;;;;4856778;29;20381;-73
2022/05/17 11:12:54;;;;;;;13.30;1.88;;;21.90;56.30;;;;;;4851074;29;19924;-73
2022/05/17 11:15:33;;;;;;;10.13;2.05;;;21.80;55.60;;;;;;4843464;29;20056;-74
2022/05/17 11:18:23;;;;;;;7.55;1.67;;;21.80;55.80;;;;;;4833537;29;20057;-74
2022/05/17 11:21:13;;;;;;;9.40;2.20;;;21.50;55.90;;;;;;4855193;29;20441;-73
2022/05/17 11:23:47;;;;;;;7.85;1.83;;;21.40;56.20;;;;;;4842502;29;20045;-74
2022/05/17 11:26:39;;;;;;;10.23;2.03;;;21.50;56.80;;;;;;4858138;29;20057;-74
2022/05/17 11:29:39;;;;;;;10.50;2.20;;;21.60;56.30;;;;;;4857746;29;20057;-74
2022/05/17 11:32:30;;;;;;;7.38;1.77;;;21.80;56.50;;;;;;4852107;29;20416;-74
2022/05/17 11:35:02;;;;;;;9.95;2.00;;;21.90;54.80;;;;;;4860685;29;20057;-74
2022/05/17 11:37:32;;;;;;;11.50;2.30;;;22.00;54.50;;;;;;4859994;29;20052;-73
2022/05/17 11:40:06;;;;;;;6.60;1.63;;;21.80;54.60;;;;;;4845692;29;20057;-73
2022/05/17 11:45:50;;;;;;;13.32;2.28;;;21.80;55.40;;;;;;4859975;29;20053;-73
2022/05/17 11:48:21;;;;;;;10.43;2.33;;;21.80;55.00;;;;;;4859927;29;20049;-74
2022/05/17 11:50:57;;;;;;;11.75;2.10;;;21.90;55.10;;;;;;4856758;29;20057;-74
2022/05/17 11:53:24;;;;;;;9.38;1.98;;;21.90;55.00;;;;;;4857862;29;20531;-74
2022/05/17 11:56:28;;;;;;;8.93;1.73;;;22.00;53.70;;;;;;4850096;29;20050;-76
2022/05/17 11:59:01;;;;;;;;;;;22.20;54.20;;;;;;4859232;29;20069;-76
2022/05/17 12:01:44;;;;;;;13.68;1.92;;;22.60;51.70;;;;;;4860359;29;19924;-76
2022/05/17 12:04:26;;;;;;;7.13;1.88;;;22.50;52.80;;;;;;4858471;29;20411;-75
2022/05/17 12:07:26;;;;;;;8.48;1.95;;;22.50;53.70;;;;;;4865137;29;20447;-76
2022/05/17 12:10:16;;;;;;;10.70;2.05;;;22.70;53.40;;;;;;4857965;29;20500;-76
2022/05/17 12:12:59;;;;;;;9.13;1.83;;;22.90;53.20;;;;;;4859122;29;20053;-76
2022/05/17 12:15:43;;;;;;;10.60;2.33;;;23.30;51.60;;;;;;4855924;29;20400;-76
2022/05/17 12:18:43;;;;;;;10.57;2.22;;;23.70;51.60;;;;;;4858197;29;20049;-75
2022/05/17 12:21:44;;;;;;;8.55;1.73;;;24.10;50.70;;;;;;4859887;29;20041;-76
2022/05/17 12:24:43;;;;;;;12.70;2.40;;;24.30;49.20;;;;;;4842399;29;20054;-75
2022/05/17 12:27:28;;;;;;;7.18;1.80;;;24.20;49.10;;;;;;4844554;29;20056;-76
2022/05/17 12:32:52;;;;;;;7.65;1.65;;;24.10;49.00;;;;;;4859219;29;20049;-75
2022/05/17 12:35:27;;;;;;;8.95;1.90;;;24.10;48.50;;;;;;4843658;29;20071;-78
2022/05/17 12:43:52;;;;;;;6.25;1.42;;;23.80;48.90;;;;;;4895253;29;20071;-73
2022/05/17 12:46:31;;;;;;;6.63;1.80;;;24.00;49.30;;;;;;4914361;29;20048;-73
2022/05/17 12:49:21;;;;;;;8.70;1.77;;;24.10;48.70;;;;;;4902063;29;20059;-73
2022/05/17 12:51:56;;;;;;;5.50;1.27;;;24.20;47.50;;;;;;4919709;29;20044;-73
2022/05/17 12:54:32;;;;;;;9.10;1.52;;;24.30;47.90;;;;;;4903990;29;20059;-74
2022/05/17 12:57:27;;;;;;;8.25;1.85;;;24.90;46.20;;;;;;4912665;29;20048;-72
2022/05/17 13:00:29;;;;;;;10.88;1.80;;;24.80;46.00;;;;;;4910753;29;20501;-73
2022/05/17 13:03:16;;;;;;;7.60;1.75;;;25.00;46.60;;;;;;4901552;29;20056;-73
2022/05/17 13:05:48;;;;;;;11.98;1.50;;;25.30;46.90;;;;;;4916810;29;20052;-74
2022/05/17 13:08:35;;;;;;;6.85;1.77;;;25.60;45.50;;;;;;4925822;29;20439;-73
2022/05/17 13:11:19;;;;;;;8.07;1.67;;;25.90;45.30;;;;;;4910413;29;20059;-74
2022/05/17 13:13:47;;;;;;;10.23;1.77;;;26.40;44.60;;;;;;4935420;29;20412;-73
2022/05/17 13:16:33;;;;;;;8.80;1.73;;;26.80;43.20;;;;;;4906312;29;20053;-74
2022/05/17 13:19:07;;;;;;;8.30;1.95;;;26.80;42.30;;;;;;4895902;29;20057;-73
2022/05/17 13:21:44;;;;;;;9.80;1.75;;;26.60;43.20;;;;;;4907935;29;20397;-73
2022/05/17 13:24:32;;;;;;;10.75;1.65;;;26.30;43.50;;;;;;4892713;29;20213;-73
2022/05/17 13:27:04;;;;;;;6.85;1.63;;;25.80;44.00;;;;;;4904090;29;20057;-73
2022/05/17 13:29:37;;;;;;;6.65;2.00;;;25.40;44.20;;;;;;4903591;29;20053;-73
2022/05/17 13:32:19;;;;;;;9.55;1.88;;;24.90;45.90;;;;;;4910642;29;20055;-73